createdAt,value
2022-09-23T02:44:52.165Z,0.00
2022-09-23T02:45:53.715Z,0.00
2022-09-23T02:46:54.913Z,0.00
2022-09-23T02:47:52.880Z,0.00
2022-09-23T02:48:55.057Z,0.00
2022-09-23T02:49:52.936Z,0.00
2022-09-23T02:51:08.777Z,0.00
2022-09-23T02:52:04.320Z,0.00
2022-09-23T02:52:57.236Z,0.00
2022-09-23T02:54:00.644Z,0.00
2022-09-23T02:54:57.977Z,0.00
2022-09-23T02:55:57.266Z,0.00
2022-09-23T02:57:18.755Z,0.00
2022-09-23T02:58:20.552Z,0.00
2022-09-23T02:59:30.447Z,0.00
2022-09-23T03:00:13.662Z,0.00
2022-09-23T03:01:00.169Z,0.00
2022-09-23T03:02:03.327Z,0.00
2022-09-23T03:03:02.561Z,0.00
2022-09-23T03:04:02.301Z,0.00
2022-09-23T03:05:02.154Z,0.00
2022-09-23T03:06:00.289Z,0.00
2022-09-23T03:07:25.885Z,0.00
2022-09-23T03:07:53.387Z,0.00
2022-09-23T03:08:53.205Z,0.00
2022-09-23T03:09:53.020Z,0.00
2022-09-23T03:10:53.015Z,0.00
2022-09-23T03:11:53.014Z,0.00
2022-09-23T03:12:52.992Z,0.00
2022-09-23T03:13:52.959Z,0.00
2022-09-23T03:14:53.006Z,0.00
2022-09-23T03:15:52.965Z,0.00
2022-09-23T03:16:53.017Z,0.00
2022-09-23T03:17:52.937Z,0.00
2022-09-23T03:18:52.900Z,0.00
2022-09-23T03:19:52.942Z,0.00
2022-09-23T03:20:52.888Z,0.00
2022-09-23T03:21:52.888Z,0.00
2022-09-23T03:22:52.856Z,0.00
2022-09-23T03:23:52.854Z,0.00
2022-09-23T03:24:54.186Z,0.00
2022-09-23T03:25:53.847Z,0.00
2022-09-23T03:26:52.794Z,0.00
2022-09-23T03:27:52.831Z,0.00
2022-09-23T03:28:52.811Z,0.00
2022-09-23T03:29:53.816Z,0.00
2022-09-23T03:30:52.830Z,0.00
2022-09-23T03:31:52.852Z,0.00
2022-09-23T03:32:52.828Z,0.00
2022-09-23T03:33:52.747Z,0.00
2022-09-23T03:34:52.771Z,0.00
2022-09-23T03:35:52.720Z,0.00
2022-09-23T03:36:52.698Z,0.00
2022-09-23T03:37:52.718Z,0.00
2022-09-23T03:38:52.726Z,0.00
2022-09-23T03:39:52.705Z,0.00
2022-09-23T03:40:52.729Z,0.00
2022-09-23T03:41:52.741Z,0.00
2022-09-23T03:42:52.662Z,0.00
2022-09-23T03:43:52.662Z,0.00
2022-09-23T03:44:52.677Z,0.00
2022-09-23T03:45:53.386Z,0.00
2022-09-23T03:46:52.622Z,0.00
2022-09-23T03:47:52.630Z,0.00
2022-09-23T03:48:52.638Z,0.00
2022-09-23T03:49:52.615Z,0.00
2022-09-23T03:50:52.588Z,0.00
2022-09-23T03:51:52.593Z,0.00
2022-09-23T03:52:52.601Z,0.00
2022-09-23T03:53:52.571Z,0.00
2022-09-23T03:54:52.584Z,0.00
2022-09-23T03:55:52.562Z,0.00
2022-09-23T03:56:52.560Z,0.00
2022-09-23T03:57:52.545Z,0.00
2022-09-23T03:58:52.496Z,0.00
2022-09-23T03:59:52.519Z,0.00
2022-09-23T04:00:52.525Z,0.00
2022-09-23T04:01:52.562Z,0.00
2022-09-23T04:02:52.497Z,0.00
2022-09-23T04:03:52.452Z,0.00
2022-09-23T04:04:52.483Z,0.00
2022-09-23T04:05:52.507Z,0.00
2022-09-23T04:06:52.434Z,0.00
2022-09-23T04:07:52.413Z,0.00
2022-09-23T04:08:52.462Z,0.00
2022-09-23T04:09:52.399Z,0.00
2022-09-23T04:10:54.866Z,0.00
2022-09-23T04:11:52.397Z,0.00
2022-09-23T04:12:52.408Z,0.00
2022-09-23T04:13:52.347Z,0.00
2022-09-23T04:14:52.371Z,0.00
2022-09-23T04:15:52.368Z,0.00
2022-09-23T04:16:52.314Z,0.00
2022-09-23T04:17:52.359Z,0.00
2022-09-23T04:18:52.316Z,0.00
2022-09-23T04:19:52.327Z,0.00
2022-09-23T04:20:52.346Z,0.00
2022-09-23T04:21:52.287Z,0.00
2022-09-23T04:22:52.295Z,0.00
2022-09-23T04:23:52.301Z,0.00
2022-09-23T04:24:52.260Z,0.00
2022-09-23T04:25:52.279Z,0.00
2022-09-23T04:26:52.269Z,0.00
2022-09-23T04:27:52.198Z,0.00
2022-09-23T04:28:52.262Z,0.00
2022-09-23T04:29:52.306Z,0.00
2022-09-23T04:30:52.233Z,0.00
2022-09-23T04:31:52.276Z,0.00
2022-09-23T04:32:52.195Z,0.00
2022-09-23T04:33:52.161Z,0.00
2022-09-23T04:34:52.148Z,0.00
2022-09-23T04:35:52.142Z,0.00
2022-09-23T04:36:52.161Z,0.00
2022-09-23T04:37:52.144Z,0.00
2022-09-23T04:38:52.086Z,0.00
2022-09-23T04:39:52.112Z,0.00
2022-09-23T04:40:52.163Z,4.00
2022-09-23T04:41:52.081Z,0.00
2022-09-23T04:42:52.095Z,0.00
2022-09-23T04:43:52.056Z,4.00
2022-09-23T04:44:52.129Z,0.00
2022-09-23T04:45:52.064Z,4.00
2022-09-23T04:46:52.057Z,4.00
2022-09-23T04:47:52.065Z,4.00
2022-09-23T04:49:24.639Z,4.00
2022-09-23T04:49:54.623Z,4.00
2022-09-23T04:50:52.392Z,8.00
2022-09-23T04:51:52.116Z,4.00
2022-09-23T04:52:51.992Z,8.00
2022-09-23T04:53:52.015Z,8.00
2022-09-23T04:54:52.034Z,12.00
2022-09-23T04:55:52.049Z,12.00
2022-09-23T04:56:51.962Z,16.00
2022-09-23T04:57:52.218Z,16.00
2022-09-23T04:58:52.024Z,20.00
2022-09-23T04:59:52.195Z,28.00
2022-09-23T05:00:52.000Z,28.00
2022-09-23T05:01:52.064Z,32.00
2022-09-23T05:02:51.917Z,40.00
2022-09-23T05:04:24.529Z,48.00
2022-09-23T05:04:52.224Z,52.00
2022-09-23T05:06:26.985Z,64.00
2022-09-23T05:06:52.188Z,72.00
2022-09-23T05:07:52.115Z,80.00
2022-09-23T05:08:51.914Z,88.00
2022-09-23T05:09:51.832Z,96.00
2022-09-23T05:10:51.830Z,108.00
2022-09-23T05:11:51.797Z,120.00
2022-09-23T05:12:56.915Z,132.00
2022-09-23T05:13:53.794Z,144.00
2022-09-23T05:14:51.804Z,152.00
2022-09-23T05:15:51.868Z,160.00
2022-09-23T05:17:24.376Z,172.00
2022-09-23T05:17:52.113Z,180.00
2022-09-23T05:18:51.962Z,196.00
2022-09-23T05:19:51.739Z,208.00
2022-09-23T05:20:51.746Z,220.00
2022-09-23T05:21:51.725Z,240.00
2022-09-23T05:22:51.701Z,256.00
2022-09-23T05:23:51.685Z,272.00
2022-09-23T05:24:51.768Z,292.00
2022-09-23T05:26:26.600Z,316.00
2022-09-23T05:26:51.959Z,344.00
2022-09-23T05:28:01.296Z,368.00
2022-09-23T05:29:19.469Z,392.00
2022-09-23T05:29:52.213Z,420.00
2022-09-23T05:31:20.460Z,444.00
2022-09-23T05:31:52.144Z,472.00
2022-09-23T05:32:52.053Z,500.00
2022-09-23T05:33:52.149Z,532.00
2022-09-23T05:34:52.343Z,560.00
2022-09-23T05:36:26.220Z,588.00
2022-09-23T05:36:52.629Z,624.00
2022-09-23T05:37:51.551Z,664.00
2022-09-23T05:38:51.627Z,704.00
2022-09-23T05:39:51.649Z,736.00
2022-09-23T05:41:25.972Z,772.00
2022-09-23T05:41:52.474Z,804.00
2022-09-23T05:42:51.741Z,832.00
2022-09-23T05:43:51.573Z,864.00
2022-09-23T05:44:51.486Z,896.00
2022-09-23T05:46:27.680Z,932.00
2022-09-23T05:47:24.556Z,960.00
2022-09-23T05:47:51.894Z,984.00
2022-09-23T05:48:52.045Z,1008.00
2022-09-23T05:50:00.339Z,1040.00
2022-09-23T05:50:53.479Z,1072.00
2022-09-23T05:51:51.442Z,1100.00
2022-09-23T05:52:51.432Z,1140.00
2022-09-23T05:53:51.469Z,1180.00
2022-09-23T05:54:51.467Z,1228.00
2022-09-23T05:55:51.545Z,1272.00
2022-09-23T05:56:51.492Z,1312.00
2022-09-23T06:01:01.080Z,1488.00
2022-09-23T06:02:01.157Z,1508.00
2022-09-23T06:03:02.825Z,1544.00
2022-09-23T06:04:02.223Z,1572.00
2022-09-23T06:05:02.344Z,1592.00
2022-09-23T06:06:02.480Z,1616.00
2022-09-23T06:07:34.813Z,1640.00
2022-09-23T06:08:03.033Z,1668.00
2022-09-23T06:09:42.013Z,1692.00
2022-09-23T06:10:02.544Z,1732.00
2022-09-23T06:11:02.692Z,1708.00
2022-09-23T06:12:02.302Z,1724.00
2022-09-23T06:13:35.920Z,1764.00
2022-09-23T06:14:03.362Z,1744.00
2022-09-23T06:15:40.930Z,1744.00
2022-09-23T06:16:02.305Z,1772.00
2022-09-23T06:17:02.497Z,1724.00
2022-09-23T06:18:02.328Z,1700.00
2022-09-23T06:19:05.425Z,1708.00
2022-09-23T06:20:03.405Z,1724.00
2022-09-23T06:21:02.143Z,1780.00
2022-09-23T06:22:30.051Z,1864.00
2022-09-23T06:23:05.144Z,1924.00
2022-09-23T06:24:02.559Z,1960.00
2022-09-23T06:25:02.149Z,1892.00
2022-09-23T06:26:02.235Z,1824.00
2022-09-23T06:27:02.190Z,1768.00
2022-09-23T06:28:01.956Z,1796.00
2022-09-23T06:29:01.912Z,1868.00
2022-09-23T06:30:02.012Z,1976.00
2022-09-23T06:31:02.010Z,1996.00
2022-09-23T06:32:02.339Z,2004.00
2022-09-23T06:33:37.224Z,1988.00
2022-09-23T06:34:11.857Z,2000.00
2022-09-23T06:35:04.433Z,2048.00
2022-09-23T06:36:01.904Z,2084.00
2022-09-23T06:37:12.957Z,2104.00
2022-09-23T06:38:04.561Z,2120.00
2022-09-23T06:39:02.195Z,2120.00
2022-09-23T06:40:02.144Z,2104.00
2022-09-23T06:41:01.965Z,2120.00
2022-09-23T06:42:34.531Z,2124.00
2022-09-23T06:43:02.131Z,2124.00
2022-09-23T06:44:35.107Z,2116.00
2022-09-23T06:45:03.151Z,2088.00
2022-09-23T06:46:34.387Z,2056.00
2022-09-23T06:47:02.104Z,2016.00
2022-09-23T06:48:35.787Z,2000.00
2022-09-23T06:49:44.329Z,1948.00
2022-09-23T06:50:41.740Z,1892.00
2022-09-23T06:51:35.489Z,1856.00
2022-09-23T06:52:36.016Z,1804.00
2022-09-23T06:53:02.804Z,1764.00
2022-09-23T06:54:34.523Z,1728.00
2022-09-23T06:55:36.188Z,1708.00
2022-09-23T06:56:02.637Z,1692.00
2022-09-23T06:57:46.917Z,1676.00
2022-09-23T06:58:03.744Z,1672.00
2022-09-23T06:59:43.329Z,1664.00
2022-09-23T07:00:41.153Z,1664.00
2022-09-23T07:01:02.205Z,1668.00
2022-09-23T07:02:34.683Z,1676.00
2022-09-23T07:03:35.203Z,1684.00
2022-09-23T07:04:02.621Z,1692.00
2022-09-23T07:05:29.400Z,1708.00
2022-09-23T07:06:35.557Z,1732.00
2022-09-23T07:07:34.207Z,1748.00
2022-09-23T07:08:02.526Z,1760.00
2022-09-23T07:09:28.086Z,1792.00
2022-09-23T07:10:35.519Z,1836.00
2022-09-23T07:11:34.004Z,1876.00
2022-09-23T07:12:28.011Z,1892.00
2022-09-23T07:13:35.108Z,1852.00
2022-09-23T07:14:35.023Z,1892.00
2022-09-23T07:15:35.204Z,1900.00
2022-09-23T07:16:02.407Z,1940.00
2022-09-23T07:17:34.318Z,2000.00
2022-09-23T07:18:02.397Z,2032.00
2022-09-23T07:19:28.091Z,2064.00
2022-09-23T07:20:02.170Z,2092.00
2022-09-23T07:21:34.297Z,2084.00
2022-09-23T07:22:27.800Z,2104.00
2022-09-23T07:23:35.120Z,2172.00
2022-09-23T07:24:34.221Z,2264.00
2022-09-23T07:25:29.321Z,2316.00
2022-09-23T07:26:36.361Z,2292.00
2022-09-23T07:27:39.900Z,2308.00
2022-09-23T07:28:01.953Z,2356.00
2022-09-23T07:29:44.500Z,2492.00
2022-09-23T07:30:35.431Z,2560.00
2022-09-23T07:31:39.048Z,2600.00
2022-09-23T07:32:11.940Z,2632.00
2022-09-23T07:33:42.683Z,2664.00
2022-09-23T07:34:01.629Z,2696.00
2022-09-23T07:35:34.985Z,2720.00
2022-09-23T07:36:01.651Z,2588.00
2022-09-23T07:37:27.902Z,2668.00
2022-09-23T07:38:01.511Z,2684.00
2022-09-23T07:39:27.757Z,2780.00
2022-09-23T07:40:35.176Z,2836.00
2022-09-23T07:41:01.492Z,2716.00
2022-09-23T07:42:33.799Z,2720.00
2022-09-23T07:43:01.399Z,2756.00
2022-09-23T07:44:33.720Z,2740.00
2022-09-23T07:45:01.713Z,2772.00
2022-09-23T07:46:34.048Z,2840.00
2022-09-23T07:47:33.655Z,2864.00
2022-09-23T07:48:01.331Z,2896.00
2022-09-23T07:49:33.659Z,2828.00
2022-09-23T07:50:35.807Z,2756.00
2022-09-23T07:51:36.257Z,2832.00
2022-09-23T07:52:01.432Z,2964.00
2022-09-23T07:53:33.746Z,3052.00
2022-09-23T07:54:33.579Z,3112.00
2022-09-23T07:55:34.729Z,3260.00
2022-09-23T07:56:01.404Z,3244.00
2022-09-23T07:57:01.283Z,3416.00
2022-09-23T07:58:33.638Z,3468.00
2022-09-23T07:59:01.342Z,3516.00
2022-09-23T08:00:01.200Z,3596.00
2022-09-23T08:01:00.908Z,3688.00
2022-09-23T08:02:00.931Z,3676.00
2022-09-23T08:03:00.980Z,3672.00
2022-09-23T08:04:34.815Z,3612.00
2022-09-23T08:05:01.087Z,3740.00
2022-09-23T08:06:01.052Z,3756.00
2022-09-23T08:07:00.904Z,3764.00
2022-09-23T08:08:27.521Z,3784.00
2022-09-23T08:09:34.803Z,3800.00
2022-09-23T08:10:01.117Z,3812.00
2022-09-23T08:12:59.136Z,3752.00
2022-09-23T08:14:06.835Z,3708.00
2022-09-23T08:15:00.446Z,3776.00
2022-09-23T08:16:00.391Z,3776.00
2022-09-23T08:17:00.175Z,3828.00
2022-09-23T08:18:00.152Z,3808.00
2022-09-23T08:19:00.231Z,3764.00
2022-09-23T08:20:00.180Z,3760.00
2022-09-23T08:21:46.966Z,3792.00
2022-09-23T08:22:00.436Z,3848.00
2022-09-23T08:23:00.562Z,3808.00
2022-09-23T08:24:33.925Z,3844.00
2022-09-23T08:25:00.405Z,3804.00
2022-09-23T08:26:00.401Z,3756.00
2022-09-23T08:27:00.091Z,3660.00
2022-09-23T08:28:32.662Z,3664.00
2022-09-23T08:29:00.323Z,3636.00
2022-09-23T08:30:27.891Z,3480.00
2022-09-23T08:31:32.660Z,3232.00
2022-09-23T08:32:00.429Z,3468.00
2022-09-23T08:33:26.653Z,3508.00
2022-09-23T08:34:00.480Z,3540.00
2022-09-23T08:35:35.173Z,3404.00
2022-09-23T08:36:00.636Z,3560.00
2022-09-23T08:37:42.593Z,3600.00
2022-09-23T08:38:34.584Z,3460.00
2022-09-23T08:39:00.758Z,3560.00
2022-09-23T08:40:00.019Z,3764.00
2022-09-23T08:40:59.989Z,3804.00
2022-09-23T08:42:32.637Z,3844.00
2022-09-23T08:43:26.613Z,3936.00
2022-09-23T08:44:33.601Z,3720.00
2022-09-23T08:45:26.531Z,3132.00
2022-09-23T08:46:32.566Z,3036.00
2022-09-23T08:47:00.274Z,3512.00
2022-09-23T08:48:26.651Z,3820.00
2022-09-23T08:49:35.210Z,4220.00
2022-09-23T08:50:32.473Z,4152.00
2022-09-23T08:51:00.630Z,4176.00
2022-09-23T08:52:32.474Z,4092.00
2022-09-23T08:53:38.324Z,3992.00
2022-09-23T08:54:35.938Z,3964.00
2022-09-23T08:55:32.460Z,4020.00
2022-09-23T08:56:00.152Z,3928.00
2022-09-23T08:56:59.886Z,3868.00
2022-09-23T08:58:32.376Z,3716.00
2022-09-23T08:59:33.407Z,3604.00
2022-09-23T09:00:00.117Z,3704.00
2022-09-23T09:00:59.942Z,3672.00
2022-09-23T09:01:59.785Z,3740.00
2022-09-23T09:02:59.741Z,3652.00
2022-09-23T09:03:59.738Z,3676.00
2022-09-23T09:05:34.493Z,3620.00
2022-09-23T09:05:59.985Z,3632.00
2022-09-23T09:07:43.804Z,3612.00
2022-09-23T09:08:07.015Z,3628.00
2022-09-23T09:09:05.801Z,3616.00
2022-09-23T09:10:02.836Z,3620.00
2022-09-23T09:15:09.787Z,3736.00
2022-09-23T09:16:10.118Z,3748.00
2022-09-23T09:17:13.366Z,3716.00
2022-09-23T09:18:21.005Z,3720.00
2022-09-23T09:19:19.065Z,3676.00
2022-09-23T09:20:10.949Z,3736.00
2022-09-23T09:21:10.833Z,3792.00
2022-09-23T09:22:10.856Z,3704.00
2022-09-23T09:23:15.566Z,3656.00
2022-09-23T09:24:10.808Z,3540.00
2022-09-23T09:25:14.384Z,3600.00
2022-09-23T09:26:18.877Z,3812.00
2022-09-23T09:27:12.864Z,3700.00
2022-09-23T09:28:26.988Z,3552.00
2022-09-23T09:29:31.123Z,3736.00
2022-09-23T09:30:12.887Z,3856.00
2022-09-23T09:31:31.926Z,3920.00
2022-09-23T09:32:31.290Z,3972.00
2022-09-23T09:33:31.103Z,4036.00
2022-09-23T09:34:16.410Z,4140.00
2022-09-23T09:35:11.032Z,4140.00
2022-09-23T09:36:13.651Z,4216.00
2022-09-23T09:37:34.505Z,4124.00
2022-09-23T09:39:21.769Z,4196.00
2022-09-23T09:40:15.934Z,4220.00
2022-09-23T09:40:53.360Z,4120.00
2022-09-23T09:41:54.702Z,4064.00
2022-09-23T09:42:31.378Z,4108.00
2022-09-23T09:43:38.841Z,3908.00
2022-09-23T09:45:44.085Z,3968.00
2022-09-23T09:45:57.931Z,4152.00
2022-09-23T09:47:14.377Z,4216.00
2022-09-23T09:48:03.620Z,4272.00
2022-09-23T09:49:08.676Z,4156.00
2022-09-23T09:50:06.068Z,4348.00
2022-09-23T09:51:41.720Z,4192.00
2022-09-23T09:52:11.351Z,4340.00
2022-09-23T09:55:09.077Z,4676.00
2022-09-23T09:56:06.137Z,4648.00
2022-09-23T09:58:11.825Z,4580.00
2022-09-23T09:58:16.055Z,4644.00
2022-09-23T09:59:16.380Z,4692.00
2022-09-23T10:02:25.900Z,5016.00
2022-09-23T10:03:30.664Z,5048.00
2022-09-23T10:04:54.157Z,5048.00
2022-09-23T10:05:42.539Z,5152.00
2022-09-23T10:06:31.222Z,4900.00
2022-09-23T10:07:27.307Z,4928.00
2022-09-23T10:10:29.131Z,5120.00
2022-09-23T10:10:32.720Z,5504.00
2022-09-23T10:13:49.036Z,5816.00
2022-09-23T10:14:49.376Z,5972.00
2022-09-23T10:15:51.827Z,6032.00
2022-09-23T10:16:55.485Z,6036.00
2022-09-23T10:17:52.443Z,5592.00
2022-09-23T10:19:01.500Z,5532.00
2022-09-23T10:19:50.439Z,5236.00
2022-09-23T10:20:50.154Z,5472.00
2022-09-23T10:21:50.105Z,5124.00
2022-09-23T10:22:56.721Z,4744.00
2022-09-23T10:23:51.241Z,4504.00
2022-09-23T10:24:54.422Z,4420.00
2022-09-23T10:25:50.785Z,4480.00
2022-09-23T10:29:13.912Z,5548.00
2022-09-23T10:30:17.318Z,6068.00
2022-09-23T10:33:29.456Z,5708.00
2022-09-23T10:37:41.676Z,6960.00
2022-09-23T10:38:41.828Z,7152.00
2022-09-23T10:39:42.139Z,7280.00
2022-09-23T10:40:41.999Z,7260.00
2022-09-23T10:41:43.664Z,6508.00
2022-09-23T10:42:42.791Z,6616.00
2022-09-23T10:43:46.041Z,6652.00
2022-09-23T10:44:51.597Z,6620.00
2022-09-23T10:45:43.464Z,6608.00
2022-09-23T10:46:43.400Z,6348.00
2022-09-23T10:47:45.957Z,6492.00
2022-09-23T10:48:50.673Z,6116.00
2022-09-23T10:49:45.286Z,6348.00
2022-09-23T10:51:21.633Z,6472.00
2022-09-23T10:52:10.558Z,6640.00
2022-09-23T10:52:53.611Z,6676.00
2022-09-23T10:55:46.828Z,6960.00
2022-09-23T10:56:58.852Z,6908.00
2022-09-23T10:57:48.888Z,7052.00
2022-09-23T10:58:47.944Z,7268.00
2022-09-23T11:02:27.869Z,7536.00
2022-09-23T11:03:41.261Z,7688.00
2022-09-23T11:05:08.114Z,7752.00
2022-09-23T11:06:09.833Z,7404.00
2022-09-23T11:07:12.990Z,6784.00
2022-09-23T11:07:47.680Z,6744.00
2022-09-23T11:08:30.733Z,6960.00
2022-09-23T11:16:48.373Z,7196.00
2022-09-23T11:17:48.700Z,7128.00
2022-09-23T11:18:56.298Z,7068.00
2022-09-23T11:19:50.853Z,7136.00
2022-09-23T11:25:26.681Z,7104.00
2022-09-23T11:28:33.320Z,7420.00
2022-09-23T11:29:42.136Z,7112.00
2022-09-23T11:32:01.975Z,7056.00
2022-09-23T11:34:01.837Z,7112.00
2022-09-23T11:35:01.726Z,7100.00
2022-09-23T11:36:02.039Z,7232.00
2022-09-23T11:37:03.388Z,7320.00
2022-09-23T11:39:28.730Z,7052.00
2022-09-23T11:45:26.362Z,7264.00
2022-09-23T11:46:39.754Z,7276.00
2022-09-23T11:50:39.085Z,7196.00
2022-09-23T11:51:40.288Z,7212.00
2022-09-23T11:52:46.462Z,7180.00
2022-09-23T11:53:39.678Z,7572.00
2022-09-23T11:56:30.582Z,8292.00
2022-09-23T11:57:21.372Z,8332.00
2022-09-23T11:59:45.302Z,8476.00
2022-09-23T12:00:51.479Z,8712.00
2022-09-23T12:03:52.940Z,8472.00
2022-09-23T12:08:47.847Z,7636.00
2022-09-23T12:10:35.957Z,7696.00
2022-09-23T12:10:57.185Z,7664.00
2022-09-23T12:12:21.910Z,7704.00
2022-09-23T12:12:54.166Z,7536.00
2022-09-23T12:15:25.376Z,7320.00
2022-09-23T12:16:25.740Z,7292.00
2022-09-23T12:17:26.357Z,7368.00
2022-09-23T12:20:04.544Z,7528.00
2022-09-23T12:21:27.429Z,7596.00
2022-09-23T12:22:07.056Z,7676.00
2022-09-23T12:23:04.583Z,7696.00
2022-09-23T12:24:04.495Z,7852.00
2022-09-23T12:25:06.090Z,7992.00
2022-09-23T12:28:12.023Z,8008.00
2022-09-23T12:32:23.949Z,8564.00
2022-09-23T12:35:03.656Z,8676.00
2022-09-23T12:36:03.623Z,8804.00
2022-09-23T12:37:12.976Z,8824.00
2022-09-23T12:39:39.005Z,8812.00
2022-09-23T12:40:48.621Z,8812.00
2022-09-23T12:41:38.815Z,8832.00
2022-09-23T12:42:46.344Z,8836.00
2022-09-23T12:48:39.224Z,8572.00
2022-09-23T12:49:41.662Z,8820.00
2022-09-23T12:50:48.805Z,9020.00
2022-09-23T12:54:03.232Z,9224.00
2022-09-23T12:55:12.294Z,9324.00
2022-09-23T12:58:17.102Z,9500.00
2022-09-23T12:59:54.782Z,9252.00
2022-09-23T13:00:46.181Z,8492.00
2022-09-23T13:01:54.987Z,8312.00
2022-09-23T13:02:53.933Z,7936.00
2022-09-23T13:04:02.865Z,7972.00
2022-09-23T13:04:31.548Z,7944.00
2022-09-23T13:07:32.075Z,7856.00
2022-09-23T13:08:40.441Z,7476.00
2022-09-23T13:11:28.423Z,8008.00
2022-09-23T13:14:28.750Z,11520.00
2022-09-23T13:15:29.849Z,15488.00
2022-09-23T13:16:29.080Z,15168.00
2022-09-23T13:18:02.004Z,9868.00
2022-09-23T13:22:17.840Z,8084.00
2022-09-23T13:23:37.318Z,8192.00
2022-09-23T13:26:34.490Z,7400.00
2022-09-23T13:30:27.442Z,12212.00
2022-09-23T13:33:30.637Z,25632.00
2022-09-23T13:34:30.967Z,22656.00
2022-09-23T13:37:28.237Z,36480.00
2022-09-23T13:39:56.109Z,36032.00
2022-09-23T13:40:59.897Z,28800.00
2022-09-23T13:42:37.682Z,31040.00
2022-09-23T13:42:58.935Z,32128.00
2022-09-23T13:46:52.556Z,23264.00
2022-09-23T13:48:28.561Z,20288.00
2022-09-23T13:49:21.621Z,15520.00
2022-09-23T13:49:54.061Z,13408.00
2022-09-23T13:51:27.390Z,12364.00
2022-09-23T13:54:09.319Z,8432.00
2022-09-23T13:57:07.171Z,7216.00
2022-09-23T13:58:41.466Z,7008.00
2022-09-23T13:59:38.286Z,7112.00
2022-09-23T14:03:38.368Z,6628.00
2022-09-23T14:06:17.620Z,6288.00
2022-09-23T14:07:46.511Z,6212.00
2022-09-23T14:08:51.468Z,6052.00
2022-09-23T14:09:19.412Z,5912.00
2022-09-23T14:12:24.301Z,5324.00
2022-09-23T14:13:58.094Z,5132.00
2022-09-23T14:14:27.168Z,4980.00
2022-09-23T14:17:58.321Z,4792.00
2022-09-23T14:19:27.142Z,4772.00
2022-09-23T14:19:59.722Z,4820.00
2022-09-23T14:21:00.158Z,4792.00
2022-09-23T14:22:32.946Z,4888.00
2022-09-23T14:22:59.734Z,4948.00
2022-09-23T14:23:59.924Z,5004.00
2022-09-23T14:25:33.395Z,4888.00
2022-09-23T14:25:59.694Z,4796.00
2022-09-23T14:26:59.909Z,4752.00
2022-09-23T14:28:00.578Z,4728.00
2022-09-23T14:29:00.254Z,4704.00
2022-09-23T14:29:59.281Z,4664.00
2022-09-23T14:30:59.257Z,4620.00
2022-09-23T14:31:59.181Z,4540.00
2022-09-23T14:32:59.260Z,4468.00
2022-09-23T14:33:59.472Z,4392.00
2022-09-23T14:34:59.222Z,4324.00
2022-09-23T14:35:59.308Z,4268.00
2022-09-23T14:36:59.196Z,4232.00
2022-09-23T14:37:59.275Z,4200.00
2022-09-23T14:38:59.177Z,4164.00
2022-09-23T14:39:59.229Z,4136.00
2022-09-23T14:40:59.535Z,4104.00
2022-09-23T14:41:59.123Z,4072.00
2022-09-23T14:42:59.158Z,4036.00
2022-09-23T14:43:59.178Z,3988.00
2022-09-23T14:44:59.266Z,3928.00
2022-09-23T14:45:59.390Z,3872.00
2022-09-23T14:46:59.280Z,3800.00
2022-09-23T14:47:59.251Z,3720.00
2022-09-23T14:48:59.142Z,3664.00
2022-09-23T14:49:59.090Z,3616.00
2022-09-23T14:50:59.282Z,3584.00
2022-09-23T14:51:59.238Z,3544.00
2022-09-23T14:52:59.277Z,3500.00
2022-09-23T14:54:33.303Z,3448.00
2022-09-23T14:55:00.122Z,3416.00
2022-09-23T14:58:03.172Z,3372.00
2022-09-23T14:59:03.387Z,3372.00
2022-09-23T15:00:03.145Z,3376.00
2022-09-23T15:01:03.277Z,3400.00
2022-09-23T15:02:03.094Z,3448.00
2022-09-23T15:03:03.100Z,3524.00
2022-09-23T15:04:04.254Z,3616.00
2022-09-23T15:05:04.226Z,3716.00
2022-09-23T15:06:08.511Z,3816.00
2022-09-23T15:07:05.180Z,3888.00
2022-09-23T15:08:04.185Z,3936.00
2022-09-23T15:09:04.135Z,3952.00
2022-09-23T15:10:04.170Z,3940.00
2022-09-23T15:11:07.869Z,3904.00
2022-09-23T15:12:05.139Z,3852.00
2022-09-23T15:13:04.127Z,3780.00
2022-09-23T15:14:33.087Z,3704.00
2022-09-23T15:15:06.103Z,3620.00
2022-09-23T15:16:04.145Z,3544.00
2022-09-23T15:17:04.111Z,3492.00
2022-09-23T15:18:04.035Z,3468.00
2022-09-23T15:19:04.109Z,3472.00
2022-09-23T15:20:04.090Z,3488.00
2022-09-23T15:21:04.002Z,3504.00
2022-09-23T15:22:04.070Z,3512.00
2022-09-23T15:23:04.022Z,3508.00
2022-09-23T15:24:04.033Z,3492.00
2022-09-23T15:25:03.991Z,3448.00
2022-09-23T15:26:04.001Z,3384.00
2022-09-23T15:27:04.016Z,3288.00
2022-09-23T15:28:03.939Z,3188.00
2022-09-23T15:29:03.997Z,3080.00
2022-09-23T15:30:03.960Z,2980.00
2022-09-23T15:31:03.953Z,2884.00
2022-09-23T15:32:04.022Z,2788.00
2022-09-23T15:33:03.963Z,2688.00
2022-09-23T15:34:03.910Z,2588.00
2022-09-23T15:35:04.181Z,2480.00
2022-09-23T15:36:03.949Z,2368.00
2022-09-23T15:37:03.884Z,2264.00
2022-09-23T15:38:03.928Z,2164.00
2022-09-23T15:39:03.948Z,2068.00
2022-09-23T15:40:03.965Z,1988.00
2022-09-23T15:41:03.975Z,1928.00
2022-09-23T15:42:03.900Z,1868.00
2022-09-23T15:43:03.848Z,1812.00
2022-09-23T15:44:03.889Z,1756.00
2022-09-23T15:45:03.788Z,1704.00
2022-09-23T15:46:03.918Z,1648.00
2022-09-23T15:47:03.788Z,1580.00
2022-09-23T15:48:03.752Z,1536.00
2022-09-23T15:49:03.748Z,1488.00
2022-09-23T15:50:03.797Z,1444.00
2022-09-23T15:51:03.791Z,1400.00
2022-09-23T15:52:03.751Z,1356.00
2022-09-23T15:53:03.716Z,1324.00
2022-09-23T15:54:03.655Z,1288.00
2022-09-23T15:55:04.657Z,1256.00
2022-09-23T15:56:03.682Z,1224.00
2022-09-23T15:57:03.687Z,1192.00
2022-09-23T15:58:03.660Z,1160.00
2022-09-23T15:59:03.653Z,1136.00
2022-09-23T16:00:03.741Z,1120.00
2022-09-23T16:01:03.744Z,1100.00
2022-09-23T16:02:03.664Z,1088.00
2022-09-23T16:03:03.592Z,1080.00
2022-09-23T16:04:03.743Z,1080.00
2022-09-23T16:05:03.596Z,1072.00
2022-09-23T16:06:03.606Z,1068.00
2022-09-23T16:07:03.607Z,1068.00
2022-09-23T16:08:08.542Z,1072.00
2022-09-23T16:09:05.619Z,1080.00
2022-09-23T16:10:03.703Z,1092.00
2022-09-23T16:11:03.548Z,1100.00
2022-09-23T16:12:03.542Z,1112.00
2022-09-23T16:13:03.495Z,1128.00
2022-09-23T16:14:03.499Z,1148.00
2022-09-23T16:15:03.522Z,1168.00
2022-09-23T16:16:03.560Z,1180.00
2022-09-23T16:17:03.482Z,1192.00
2022-09-23T16:18:03.432Z,1196.00
2022-09-23T16:19:03.539Z,1184.00
2022-09-23T16:20:03.428Z,1172.00
2022-09-23T16:21:03.502Z,1156.00
2022-09-23T16:22:03.418Z,1136.00
2022-09-23T16:23:03.405Z,1108.00
2022-09-23T16:24:03.428Z,1080.00
2022-09-23T16:25:03.364Z,1052.00
2022-09-23T16:26:03.369Z,1024.00
2022-09-23T16:27:03.393Z,992.00
2022-09-23T16:28:03.383Z,960.00
2022-09-23T16:29:03.417Z,924.00
2022-09-23T16:30:03.309Z,892.00
2022-09-23T16:31:03.340Z,864.00
2022-09-23T16:32:03.329Z,836.00
2022-09-23T16:33:03.306Z,816.00
2022-09-23T16:34:03.328Z,800.00
2022-09-23T16:35:03.280Z,784.00
2022-09-23T16:36:03.307Z,768.00
2022-09-23T16:37:03.295Z,752.00
2022-09-23T16:38:03.286Z,724.00
2022-09-23T16:39:03.248Z,692.00
2022-09-23T16:40:03.285Z,660.00
2022-09-23T16:41:03.310Z,624.00
2022-09-23T16:42:03.200Z,592.00
2022-09-23T16:43:03.323Z,560.00
2022-09-23T16:44:03.202Z,528.00
2022-09-23T16:45:04.216Z,500.00
2022-09-23T16:46:03.273Z,472.00
2022-09-23T16:47:03.179Z,448.00
2022-09-23T16:48:03.167Z,428.00
2022-09-23T16:49:03.304Z,400.00
2022-09-23T16:50:03.108Z,380.00
2022-09-23T16:51:03.121Z,356.00
2022-09-23T16:52:03.129Z,336.00
2022-09-23T16:53:03.071Z,316.00
2022-09-23T16:54:03.097Z,296.00
2022-09-23T16:55:03.140Z,280.00
2022-09-23T16:56:03.066Z,268.00
2022-09-23T16:57:03.069Z,256.00
2022-09-23T16:58:03.062Z,240.00
2022-09-23T16:59:03.081Z,228.00
2022-09-23T17:00:03.041Z,216.00
2022-09-23T17:01:03.139Z,196.00
2022-09-23T17:02:03.146Z,184.00
2022-09-23T17:03:03.047Z,172.00
2022-09-23T17:04:03.004Z,160.00
2022-09-23T17:05:02.979Z,148.00
2022-09-23T17:06:07.790Z,136.00
2022-09-23T17:07:04.973Z,128.00
2022-09-23T17:08:02.983Z,116.00
2022-09-23T17:09:03.000Z,108.00
2022-09-23T17:10:02.959Z,100.00
2022-09-23T17:11:02.964Z,92.00
2022-09-23T17:12:02.933Z,84.00